ADDS METAR Data INFO
IDs: Format: Raw Decoded Include TAF

Data at: 0115 UTC 24 Jun 2018

KTYS 240053Z 23007KT 10SM FEW045 SCT150 BKN250 23/19 A2989 RMK AO2 SLP111 T02330194 $
KTYS 232353Z 23012KT 10SM FEW045 SCT150 BKN250 23/19 A2988 RMK AO2 SLP108 T02330194 10306 20233 55002 $
KTYS 232253Z 21015KT 10SM FEW050 FEW150 BKN250 24/19 A2988 RMK AO2 SLP107 T02440189 $
KTYS 232153Z 21017G23KT 10SM FEW050 SCT150 BKN250 23/18 A2989 RMK AO2 SLP110 T02330183 $
KTYS 232053Z 19018G24KT 10SM FEW050 SCT150 BKN250 24/19 A2989 RMK AO2 PK WND 21029/2033 SLP111 T02440194 55010 $
KTYS 231953Z 20010KT 10SM FEW035 SCT045 BKN250 30/21 A2988 RMK AO2 LTG DSNT S AND SW SLP106 T03000206 $
KTYS 231853Z 24011KT 10SM SCT035 BKN045 BKN250 29/20 A2990 RMK AO2 SLP113 T02940200 $
KTYS 231753Z 22016KT 10SM SCT040 SCT090 BKN250 29/19 A2992 RMK AO2 SLP119 T02890194 10294 20217 58002 $
KTYS 231653Z 25010KT 10SM SCT060 SCT090 BKN250 28/19 A2993 RMK AO2 SLP122 T02780194 $
KTYS 231553Z 23008KT 10SM FEW025 BKN033 27/20 A2993 RMK AO2 SLP125 T02670200 $
KTYS 231453Z 23012KT 10SM FEW018 BKN033 24/20 A2992 RMK AO2 SLP122 T02440200 51006 $
KTYS 231353Z 21009KT 10SM SCT018 BKN031 BKN060 24/20 A2992 RMK AO2 SLP120 T02390200 $
KTYS 231316Z 22011KT 10SM SCT014 BKN035 BKN060 23/21 A2992 RMK AO2 T02330206 $
KTYS 231253Z 23013KT 10SM SCT014 BKN022 23/20 A2992 RMK AO2 SLP121 T02280200 $
KTYS 231204Z 21009KT 10SM SCT021 BKN030 BKN045 22/21 A2991 RMK AO2 T02170206 $
KTYS 231153Z 22009KT 10SM OVC023 22/20 A2990 RMK AO2 SLP117 70005 T02170200 10217 20206 51025 $
KTYS 231053Z 22007KT 10SM FEW007 OVC020 21/21 A2988 RMK AO2 SLP108 T02110206 $
KTYS 230953Z 23010KT 10SM FEW007 OVC021 21/21 A2986 RMK AO2 SLP101 T02110206 $
KTYS 230853Z 22005KT 10SM SCT007 BKN015 OVC041 21/21 A2983 RMK AO2 SLP088 T02110206 53002 $
KTYS 230844Z 23007KT 10SM FEW007 BKN015 OVC041 21/21 A2983 RMK AO2 T02110206 $
KTYS 230753Z 23012KT 10SM OVC017 21/21 A2982 RMK AO2 SLP086 T02110206 $
KTYS 230722Z 24010KT 10SM BKN021 BKN032 21/21 A2982 RMK AO2 T02110206 $
KTYS 230653Z 28008KT 10SM BKN034 21/21 A2982 RMK AO2 SLP084 T02060206 $
KTYS 230553Z 23005KT 10SM BKN030 BKN037 21/21 A2982 RMK AO2 SLP086 60000 T02110206 10222 20211 51004 $
KTYS 230453Z 25004KT 10SM SCT030 BKN037 BKN055 OVC250 21/21 A2981 RMK AO2 RAE44 SLP084 P0000 T02110206 403110211 $
KTYS 230353Z 24009KT 10SM -RA SCT075 OVC095 21/21 A2982 RMK AO2 RAB11 SLP086 P0000 T02110206 $
KTYS 230253Z 28006KT 10SM SCT046 BKN080 BKN130 OVC250 22/20 A2981 RMK AO2 SLP083 T02170200 53002 $
KTYS 230153Z 25006KT 10SM SCT055 BKN080 BKN120 BKN250 22/20 A2981 RMK AO2 SLP082 T02170200 $
KTYS 230053Z 21007KT 10SM SCT046 SCT110 BKN250 22/21 A2980 RMK AO2 SLP081 T02170206 $
KTYS 222353Z 20013KT 10SM FEW048 SCT110 BKN250 22/21 A2980 RMK AO2 RAE36 SLP081 P0002 60005 T02220206 10311 20217 50008 $
KTYS 222253Z 20011KT 10SM -RA FEW048 BKN110 OVC250 22/21 A2982 RMK AO2 PK WND 22026/2229 SLP087 P0003 T02170211 $
KTYS 222204Z 22015KT 10SM -RA FEW048 SCT070 BKN110 OVC250 23/21 A2981 RMK AO2 LTG DSNT S AND SW TS VC S DSIPTD P0000 T02280206 $
KTYS 222153Z 23018G24KT 10SM VCTS -RA FEW050CB SCT085 BKN110 OVC250 24/21 A2980 RMK AO2 LTG DSNT S AND SW SLP081 OCNL LTGICCG VC S TS VC S MOV ENE P0000 T02390211 $
KTYS 222142Z 24014KT 10SM VCTS -RA FEW050CB FEW090 BKN110 OVC250 24/21 A2979 RMK AO2 LTG DSNT S OCNL LTGICCG VC SSW TS VC SSW MOV NE P0000 T02440206 $
KTYS 222053Z 22017KT 10SM -RA SCT060 BKN090 BKN110 OVC250 27/18 A2978 RMK AO2 RAB39 SLP071 CB DSNT SW-W P0000 60000 T02720183 56016 $
KTYS 221953Z 20017KT 10SM SCT055 SCT100 BKN250 31/17 A2979 RMK AO2 SLP074 T03060172 $
KTYS 221853Z 22015G19KT 10SM FEW035 FEW055 SCT180 SCT250 30/18 A2980 RMK AO2 SLP078 T03000183 $
KTYS 221753Z 20009G17KT 10SM FEW032 SCT150 SCT250 28/19 A2983 RMK AO2 SLP088 T02830189 10289 20222 58005 $
KTYS 221653Z VRB05G14KT 10SM FEW028 FEW200 27/19 A2984 RMK AO2 SLP092 T02720194 $
KTYS 221644Z 24008KT 10SM FEW028 FEW200 27/19 A2984 RMK AO2 T02720194 $
KTYS 221618Z 23009KT 10SM BKN028 BKN200 27/20 A2984 RMK AO2 T02720200 $
KTYS 221553Z 22012KT 10SM SCT028 SCT200 26/19 A2985 RMK AO2 SLP095 T02610194 $
KTYS 221453Z 23013KT 10SM FEW022 SCT029 BKN200 25/20 A2984 RMK AO2 SLP093 T02500200 53004 $
KTYS 221353Z 21015KT 10SM FEW032 BKN050 BKN180 24/19 A2984 RMK AO2 SLP092 T02440194 $